createdAt,value
2019-05-03T00:00:55.864Z,965.00
2019-05-03T00:01:55.911Z,964.97
2019-05-03T00:02:55.959Z,964.95
2019-05-03T00:03:56.043Z,964.93
2019-05-03T00:04:56.060Z,964.96
2019-05-03T00:05:56.097Z,964.95
2019-05-03T00:06:56.144Z,964.90
2019-05-03T00:07:56.200Z,964.95
2019-05-03T00:08:56.289Z,964.89
2019-05-03T00:09:56.285Z,964.90
2019-05-03T00:10:56.335Z,964.88
2019-05-03T00:11:56.379Z,964.91
2019-05-03T00:12:56.425Z,964.89
2019-05-03T00:13:56.490Z,964.87
2019-05-03T00:14:56.581Z,964.90
2019-05-03T00:15:56.567Z,964.87
2019-05-03T00:16:56.614Z,964.89
2019-05-03T00:17:56.662Z,964.88
2019-05-03T00:18:56.704Z,964.90
2019-05-03T00:19:56.776Z,964.86
2019-05-03T00:20:56.801Z,964.87
2019-05-03T00:21:56.852Z,964.86
2019-05-03T00:22:56.889Z,964.85
2019-05-03T00:23:57.053Z,964.92
2019-05-03T00:25:06.077Z,964.88
2019-05-03T00:25:57.036Z,964.93
2019-05-03T00:26:57.082Z,964.89
2019-05-03T00:27:57.124Z,964.91
2019-05-03T00:28:57.172Z,964.91
2019-05-03T00:29:57.246Z,964.92
2019-05-03T00:30:57.307Z,964.90
2019-05-03T00:31:57.310Z,964.94
2019-05-03T00:32:57.366Z,964.91
2019-05-03T00:33:57.416Z,964.91
2019-05-03T00:34:57.480Z,964.90
2019-05-03T00:35:57.498Z,964.88
2019-05-03T00:36:57.545Z,964.90
2019-05-03T00:37:57.611Z,964.92
2019-05-03T00:38:57.636Z,964.91
2019-05-03T00:39:57.709Z,964.89
2019-05-03T00:40:57.730Z,964.86
2019-05-03T00:41:57.775Z,964.88
2019-05-03T00:42:57.833Z,964.88
2019-05-03T00:43:57.868Z,964.87
2019-05-03T00:44:57.939Z,964.85
2019-05-03T00:45:57.969Z,964.85
2019-05-03T00:46:58.033Z,964.87
2019-05-03T00:47:58.055Z,964.83
2019-05-03T00:48:58.118Z,964.82
2019-05-03T00:49:58.181Z,964.83
2019-05-03T00:50:58.199Z,964.82
2019-05-03T00:51:58.240Z,964.84
2019-05-03T00:52:58.297Z,964.80
2019-05-03T00:53:58.356Z,964.80
2019-05-03T00:54:58.400Z,964.81
2019-05-03T00:55:58.447Z,964.78
2019-05-03T00:56:59.356Z,964.78
2019-05-03T00:57:58.522Z,964.78
2019-05-03T00:58:58.577Z,964.81
2019-05-03T00:59:58.617Z,964.78
2019-05-03T01:00:58.680Z,964.74
2019-05-03T01:01:58.708Z,964.75
2019-05-03T01:02:58.753Z,964.77
2019-05-03T01:03:58.802Z,964.75
2019-05-03T01:04:58.846Z,964.80
2019-05-03T01:05:58.922Z,964.77
2019-05-03T01:06:58.939Z,964.75
2019-05-03T01:07:58.990Z,964.75
2019-05-03T01:08:59.038Z,964.76
2019-05-03T01:09:59.249Z,964.73
2019-05-03T01:10:59.152Z,964.70
2019-05-03T01:11:59.171Z,964.72
2019-05-03T01:12:59.222Z,964.72
2019-05-03T01:13:59.267Z,964.69
2019-05-03T01:14:59.309Z,964.65
2019-05-03T01:15:59.389Z,964.69
2019-05-03T01:16:59.428Z,964.69
2019-05-03T01:17:59.452Z,964.64
2019-05-03T01:18:59.497Z,964.68
2019-05-03T01:19:59.543Z,964.71
2019-05-03T01:20:59.609Z,964.66
2019-05-03T01:22:01.809Z,964.64
2019-05-03T01:22:59.682Z,964.60
2019-05-03T01:24:01.564Z,964.64
2019-05-03T01:24:59.780Z,964.62
2019-05-03T01:25:59.824Z,964.62
2019-05-03T01:27:01.824Z,964.65
2019-05-03T01:28:01.559Z,964.67
2019-05-03T01:28:59.966Z,964.63
2019-05-03T01:30:00.015Z,964.63
2019-05-03T01:31:00.055Z,964.64
2019-05-03T01:32:02.123Z,964.65
2019-05-03T01:33:00.232Z,964.66
2019-05-03T01:34:02.244Z,964.66
2019-05-03T01:35:00.246Z,964.66
2019-05-03T01:36:02.500Z,964.62
2019-05-03T01:37:02.428Z,964.67
2019-05-03T01:38:02.053Z,964.68
2019-05-03T01:39:02.094Z,964.66
2019-05-03T01:40:02.260Z,964.68
2019-05-03T01:41:01.729Z,964.70
2019-05-03T01:42:02.551Z,964.66
2019-05-03T01:43:02.206Z,964.66
2019-05-03T01:44:01.939Z,964.68
2019-05-03T01:45:01.868Z,964.66
2019-05-03T01:46:02.496Z,964.62
2019-05-03T01:47:02.299Z,964.65
2019-05-03T01:48:02.046Z,964.65
2019-05-03T01:49:01.603Z,964.68
2019-05-03T01:50:02.742Z,964.66
2019-05-03T01:51:02.758Z,964.68
2019-05-03T01:52:02.230Z,964.70
2019-05-03T01:53:01.950Z,964.66
2019-05-03T01:54:01.653Z,964.67
2019-05-03T01:55:03.376Z,964.66
2019-05-03T01:56:01.220Z,964.64
2019-05-03T01:57:02.476Z,964.67
2019-05-03T01:58:01.905Z,964.68
2019-05-03T01:59:01.866Z,964.68
2019-05-03T02:00:02.799Z,964.67
2019-05-03T02:01:02.799Z,964.72
2019-05-03T02:02:02.266Z,964.71
2019-05-03T02:03:01.719Z,964.71
2019-05-03T02:04:02.981Z,964.69
2019-05-03T02:05:02.539Z,964.72
2019-05-03T02:06:02.432Z,964.70
2019-05-03T02:07:02.277Z,964.72
2019-05-03T02:08:02.081Z,964.69
2019-05-03T02:09:01.825Z,964.66
2019-05-03T02:10:02.790Z,964.70
2019-05-03T02:11:02.251Z,964.67
2019-05-03T02:12:02.224Z,964.66
2019-05-03T02:13:02.194Z,964.66
2019-05-03T02:14:02.062Z,964.70
2019-05-03T02:15:02.523Z,964.67
2019-05-03T02:16:02.413Z,964.67
2019-05-03T02:17:02.196Z,964.68
2019-05-03T02:18:02.673Z,964.68
2019-05-03T02:19:02.510Z,964.67
2019-05-03T02:20:02.389Z,964.67
2019-05-03T02:21:02.388Z,964.70
2019-05-03T02:22:02.962Z,964.70
2019-05-03T02:23:02.876Z,964.66
2019-05-03T02:24:02.665Z,964.66
2019-05-03T02:25:02.569Z,964.63
2019-05-03T02:26:03.034Z,964.64
2019-05-03T02:27:02.661Z,964.63
2019-05-03T02:28:02.811Z,964.68
2019-05-03T02:29:02.776Z,964.63
2019-05-03T02:30:03.344Z,964.64
2019-05-03T02:31:03.611Z,964.65
2019-05-03T02:32:03.505Z,964.66
2019-05-03T02:33:04.058Z,964.63
2019-05-03T02:34:03.646Z,964.67
2019-05-03T02:35:03.031Z,964.63
2019-05-03T02:36:03.864Z,964.66
2019-05-03T02:37:03.417Z,964.63
2019-05-03T02:38:03.745Z,964.62
2019-05-03T02:39:03.235Z,964.62
2019-05-03T02:40:04.175Z,964.62
2019-05-03T02:41:03.313Z,964.60
2019-05-03T02:42:10.361Z,964.59
2019-05-03T02:43:05.429Z,964.60
2019-05-03T02:44:06.132Z,964.56
2019-05-03T02:45:05.918Z,964.59
2019-05-03T02:46:05.930Z,964.61
2019-05-03T02:47:05.620Z,964.64
2019-05-03T02:48:06.066Z,964.66
2019-05-03T02:49:06.202Z,964.66
2019-05-03T02:50:05.872Z,964.64
2019-05-03T02:51:06.350Z,964.64
2019-05-03T02:52:06.375Z,964.62
2019-05-03T02:53:05.761Z,964.62
2019-05-03T02:54:05.595Z,964.62
2019-05-03T02:55:06.045Z,964.61
2019-05-03T02:56:15.214Z,964.59
2019-05-03T02:57:06.294Z,964.58
2019-05-03T02:58:05.753Z,964.59
2019-05-03T02:59:06.207Z,964.59
2019-05-03T03:00:05.035Z,964.59
2019-05-03T03:01:06.513Z,964.60
2019-05-03T03:02:06.342Z,964.58
2019-05-03T03:03:05.512Z,964.62
2019-05-03T03:04:05.251Z,964.60
2019-05-03T03:05:05.753Z,964.59
2019-05-03T03:06:06.710Z,964.58
2019-05-03T03:07:05.642Z,964.59
2019-05-03T03:08:05.934Z,964.62
2019-05-03T03:09:05.446Z,964.59
2019-05-03T03:10:05.323Z,964.58
2019-05-03T03:11:06.234Z,964.62
2019-05-03T03:12:06.148Z,964.58
2019-05-03T03:13:05.940Z,964.60
2019-05-03T03:14:05.740Z,964.62
2019-05-03T03:15:06.185Z,964.61
2019-05-03T03:16:06.788Z,964.63
2019-05-03T03:17:06.641Z,964.63
2019-05-03T03:18:06.322Z,964.64
2019-05-03T03:19:06.602Z,964.67
2019-05-03T03:20:05.588Z,964.64
2019-05-03T03:21:05.858Z,964.64
2019-05-03T03:22:05.832Z,964.66
2019-05-03T03:23:06.146Z,964.67
2019-05-03T03:24:06.163Z,964.64
2019-05-03T03:25:05.502Z,964.64
2019-05-03T03:26:06.203Z,964.66
2019-05-03T03:27:05.507Z,964.63
2019-05-03T03:28:05.528Z,964.63
2019-05-03T03:29:06.047Z,964.66
2019-05-03T03:30:07.561Z,964.62
2019-05-03T03:31:08.491Z,964.65
2019-05-03T03:32:08.938Z,964.65
2019-05-03T03:33:08.701Z,964.67
2019-05-03T03:34:08.160Z,964.62
2019-05-03T03:35:10.993Z,964.62
2019-05-03T03:36:32.029Z,964.63
2019-05-03T03:37:09.981Z,964.63
2019-05-03T03:38:05.942Z,964.62
2019-05-03T03:39:06.213Z,964.60
2019-05-03T03:40:06.246Z,964.58
2019-05-03T03:41:06.187Z,964.63
2019-05-03T03:42:06.129Z,964.64
2019-05-03T03:43:06.172Z,964.65
2019-05-03T03:44:06.261Z,964.62
2019-05-03T03:45:06.376Z,964.65
2019-05-03T03:46:06.328Z,964.67
2019-05-03T03:47:06.360Z,964.65
2019-05-03T03:48:06.411Z,964.65
2019-05-03T03:49:07.157Z,964.66
2019-05-03T03:50:06.504Z,964.67
2019-05-03T03:51:06.643Z,964.70
2019-05-03T03:52:06.589Z,964.72
2019-05-03T03:53:06.800Z,964.75
2019-05-03T03:54:06.694Z,964.77
2019-05-03T03:55:06.742Z,964.74
2019-05-03T03:56:06.792Z,964.76
2019-05-03T03:57:08.097Z,964.75
2019-05-03T03:58:06.910Z,964.71
2019-05-03T03:59:06.924Z,964.76
2019-05-03T04:00:06.960Z,964.75
2019-05-03T04:01:07.021Z,964.77
2019-05-03T04:02:07.075Z,964.77
2019-05-03T04:03:07.093Z,964.77
2019-05-03T04:04:07.141Z,964.78
2019-05-03T04:05:07.184Z,964.79
2019-05-03T04:06:07.256Z,964.78
2019-05-03T04:07:07.308Z,964.79
2019-05-03T04:08:07.325Z,964.78
2019-05-03T04:09:07.376Z,964.78
2019-05-03T04:10:07.431Z,964.82
2019-05-03T04:11:07.463Z,964.85
2019-05-03T04:12:07.555Z,964.82
2019-05-03T04:13:07.576Z,964.85
2019-05-03T04:14:07.607Z,964.85
2019-05-03T04:15:07.680Z,964.84
2019-05-03T04:16:07.693Z,964.85
2019-05-03T04:17:07.758Z,964.87
2019-05-03T04:18:07.793Z,964.87
2019-05-03T04:19:07.836Z,964.91
2019-05-03T04:20:07.884Z,964.93
2019-05-03T04:21:07.986Z,964.93
2019-05-03T04:22:08.018Z,964.93
2019-05-03T04:23:08.047Z,964.91
2019-05-03T04:24:08.070Z,964.93
2019-05-03T04:25:08.116Z,964.93
2019-05-03T04:26:08.172Z,964.93
2019-05-03T04:27:18.602Z,964.91
2019-05-03T04:28:08.309Z,964.94
2019-05-03T04:29:08.298Z,964.99
2019-05-03T04:30:08.343Z,964.98
2019-05-03T04:31:08.406Z,964.96
2019-05-03T04:32:08.464Z,965.02
2019-05-03T04:33:08.503Z,965.03
2019-05-03T04:34:08.527Z,965.06
2019-05-03T04:35:08.583Z,965.07
2019-05-03T04:36:08.625Z,965.07
2019-05-03T04:37:08.668Z,965.09
2019-05-03T04:38:08.733Z,965.08
2019-05-03T04:39:08.779Z,965.14
2019-05-03T04:40:08.813Z,965.13
2019-05-03T04:41:08.855Z,965.16
2019-05-03T04:42:08.898Z,965.14
2019-05-03T04:43:08.985Z,965.13
2019-05-03T04:44:08.991Z,965.16
2019-05-03T04:45:09.048Z,965.18
2019-05-03T04:46:09.093Z,965.22
2019-05-03T04:47:09.142Z,965.19
2019-05-03T04:48:09.206Z,965.21
2019-05-03T04:49:09.227Z,965.19
2019-05-03T04:50:09.276Z,965.19
2019-05-03T04:51:09.313Z,965.25
2019-05-03T04:52:09.368Z,965.27
2019-05-03T04:53:09.434Z,965.26
2019-05-03T04:54:09.531Z,965.24
2019-05-03T04:55:09.499Z,965.25
2019-05-03T04:56:09.546Z,965.24
2019-05-03T04:57:09.604Z,965.27
2019-05-03T04:58:09.664Z,965.30
2019-05-03T04:59:09.694Z,965.27
2019-05-03T05:00:11.468Z,965.30
2019-05-03T05:01:09.784Z,965.31
2019-05-03T05:02:09.835Z,965.32
2019-05-03T05:03:09.926Z,965.34
2019-05-03T05:04:09.915Z,965.37
2019-05-03T05:05:09.963Z,965.37
2019-05-03T05:06:10.011Z,965.41
2019-05-03T05:07:10.061Z,965.42
2019-05-03T05:08:10.123Z,965.43
2019-05-03T05:09:10.172Z,965.45
2019-05-03T05:10:10.191Z,965.43
2019-05-03T05:11:10.686Z,965.45
2019-05-03T05:12:10.285Z,965.44
2019-05-03T05:13:10.333Z,965.48
2019-05-03T05:14:10.404Z,965.50
2019-05-03T05:15:10.423Z,965.47
2019-05-03T05:16:10.469Z,965.47
2019-05-03T05:17:10.513Z,965.50
2019-05-03T05:18:10.597Z,965.49
2019-05-03T05:19:10.625Z,965.50
2019-05-03T05:20:11.192Z,965.50
2019-05-03T05:21:10.713Z,965.51
2019-05-03T05:22:10.743Z,965.53
2019-05-03T05:23:10.789Z,965.51
2019-05-03T05:24:10.855Z,965.52
2019-05-03T05:25:10.883Z,965.52
2019-05-03T05:26:10.927Z,965.54
2019-05-03T05:27:10.973Z,965.56
2019-05-03T05:28:11.022Z,965.58
2019-05-03T05:29:11.100Z,965.54
2019-05-03T05:30:11.111Z,965.56
2019-05-03T05:31:11.162Z,965.58
2019-05-03T05:32:11.215Z,965.61
2019-05-03T05:33:11.252Z,965.60
2019-05-03T05:34:11.318Z,965.59
2019-05-03T05:35:11.343Z,965.63
2019-05-03T05:36:11.389Z,965.60
2019-05-03T05:37:11.485Z,965.63
2019-05-03T05:38:11.478Z,965.64
2019-05-03T05:39:11.547Z,965.66
2019-05-03T05:40:11.593Z,965.66
2019-05-03T05:41:11.621Z,965.67
2019-05-03T05:42:11.673Z,965.68
2019-05-03T05:43:11.712Z,965.67
2019-05-03T05:44:11.804Z,965.71
2019-05-03T05:45:11.824Z,965.72
2019-05-03T05:46:11.870Z,965.70
2019-05-03T05:47:11.917Z,965.70
2019-05-03T05:48:11.943Z,965.70
2019-05-03T05:49:11.990Z,965.72
2019-05-03T05:50:12.054Z,965.73
2019-05-03T05:51:13.580Z,965.73
2019-05-03T05:52:12.125Z,965.75
2019-05-03T05:53:12.175Z,965.75
2019-05-03T05:54:14.249Z,965.75
2019-05-03T05:55:12.296Z,965.73
2019-05-03T05:56:12.311Z,965.78
2019-05-03T05:57:12.362Z,965.80
2019-05-03T05:58:12.409Z,965.78
2019-05-03T05:59:14.695Z,965.81
2019-05-03T06:00:12.517Z,965.80
2019-05-03T06:01:14.469Z,965.82
2019-05-03T06:02:12.593Z,965.82
2019-05-03T06:03:12.639Z,965.87
2019-05-03T06:04:12.683Z,965.88
2019-05-03T06:05:14.679Z,965.91
2019-05-03T06:06:12.771Z,965.85
2019-05-03T06:07:14.777Z,965.88
2019-05-03T06:08:15.012Z,965.88
2019-05-03T06:09:12.910Z,965.87
2019-05-03T06:10:14.750Z,965.85
2019-05-03T06:11:14.752Z,965.89
2019-05-03T06:12:14.766Z,965.91
2019-05-03T06:13:15.085Z,965.90
2019-05-03T06:14:15.187Z,965.89
2019-05-03T06:15:14.926Z,965.93
2019-05-03T06:16:15.369Z,965.90
2019-05-03T06:17:14.631Z,965.93
2019-05-03T06:18:14.665Z,965.88
2019-05-03T06:19:14.715Z,965.92
2019-05-03T06:20:13.438Z,965.94
2019-05-03T06:21:14.862Z,965.91
2019-05-03T06:22:15.256Z,965.95
2019-05-03T06:23:14.437Z,965.92
2019-05-03T06:24:14.763Z,965.93
2019-05-03T06:25:16.487Z,965.94
2019-05-03T06:26:15.647Z,965.98
2019-05-03T06:27:15.285Z,965.93
2019-05-03T06:28:19.979Z,965.93
2019-05-03T06:29:14.944Z,965.91
2019-05-03T06:30:14.944Z,965.93
2019-05-03T06:31:14.880Z,965.95
2019-05-03T06:32:15.369Z,965.96
2019-05-03T06:33:14.382Z,965.94
2019-05-03T06:34:15.002Z,965.95
2019-05-03T06:35:15.180Z,965.91
2019-05-03T06:36:15.253Z,965.89
2019-05-03T06:37:14.811Z,965.92
2019-05-03T06:38:15.241Z,965.96
2019-05-03T06:39:15.448Z,965.96
2019-05-03T06:40:14.915Z,965.93
2019-05-03T06:41:15.004Z,965.95
2019-05-03T06:42:16.003Z,965.97
2019-05-03T06:43:15.737Z,965.97
2019-05-03T06:44:14.598Z,965.96
2019-05-03T06:45:15.085Z,965.97
2019-05-03T06:46:18.190Z,965.97
2019-05-03T06:47:14.915Z,965.97
2019-05-03T06:48:17.255Z,965.92
2019-05-03T06:49:15.149Z,965.95
2019-05-03T06:50:19.330Z,965.96
2019-05-03T06:51:19.723Z,965.98
2019-05-03T06:52:14.930Z,965.97
2019-05-03T06:53:15.523Z,965.94
2019-05-03T06:54:15.725Z,966.01
2019-05-03T06:55:15.044Z,965.97
2019-05-03T06:56:19.194Z,965.96
2019-05-03T06:57:15.155Z,965.99
2019-05-03T06:58:20.290Z,965.98
2019-05-03T06:59:15.233Z,965.99
2019-05-03T07:00:15.427Z,966.00
2019-05-03T07:01:15.322Z,965.99
2019-05-03T07:02:15.404Z,965.99
2019-05-03T07:03:15.415Z,965.98
2019-05-03T07:04:15.468Z,966.00
2019-05-03T07:05:15.516Z,965.97
2019-05-03T07:06:15.561Z,966.01
2019-05-03T07:07:15.662Z,966.00
2019-05-03T07:08:15.658Z,966.00
2019-05-03T07:09:15.798Z,966.01
2019-05-03T07:10:15.756Z,965.98
2019-05-03T07:11:15.806Z,965.99
2019-05-03T07:12:15.868Z,966.01
2019-05-03T07:13:15.890Z,966.00
2019-05-03T07:14:15.950Z,966.05
2019-05-03T07:15:15.983Z,965.96
2019-05-03T07:16:16.029Z,965.99
2019-05-03T07:17:16.118Z,966.00
2019-05-03T07:18:16.121Z,965.97
2019-05-03T07:19:16.173Z,965.96
2019-05-03T07:20:16.240Z,966.02
2019-05-03T07:21:16.266Z,966.01
2019-05-03T07:22:16.365Z,965.94
2019-05-03T07:23:16.397Z,966.01
2019-05-03T07:24:16.416Z,966.04
2019-05-03T07:25:16.455Z,966.01
2019-05-03T07:26:16.501Z,966.05
2019-05-03T07:27:16.553Z,966.01
2019-05-03T07:28:16.623Z,966.04
2019-05-03T07:29:16.647Z,966.02
2019-05-03T07:30:16.717Z,966.04
2019-05-03T07:31:16.753Z,965.97
2019-05-03T07:32:16.786Z,966.00
2019-05-03T07:33:16.852Z,966.04
2019-05-03T07:34:16.899Z,966.05
2019-05-03T07:35:16.925Z,966.04
2019-05-03T07:36:16.982Z,966.04
2019-05-03T07:37:17.020Z,966.07
2019-05-03T07:38:17.088Z,966.07
2019-05-03T07:39:17.116Z,966.06
2019-05-03T07:40:17.164Z,966.13
2019-05-03T07:41:17.220Z,966.07
2019-05-03T07:42:17.257Z,966.06
2019-05-03T07:43:18.862Z,966.07
2019-05-03T07:44:17.350Z,966.03
2019-05-03T07:45:17.401Z,966.06
2019-05-03T07:46:17.452Z,966.09
2019-05-03T07:47:17.491Z,966.09
2019-05-03T07:48:17.580Z,966.15
2019-05-03T07:49:17.582Z,966.13
2019-05-03T07:50:17.638Z,966.14
2019-05-03T07:51:17.680Z,966.18
2019-05-03T07:52:17.732Z,966.18
2019-05-03T07:53:17.804Z,966.15
2019-05-03T07:54:17.817Z,966.19
2019-05-03T07:55:17.932Z,966.18
2019-05-03T07:56:17.915Z,966.16
2019-05-03T07:57:18.260Z,966.19
2019-05-03T07:58:18.024Z,966.20
2019-05-03T07:59:18.241Z,966.20
2019-05-03T08:00:18.136Z,966.16
2019-05-03T08:01:18.152Z,966.20
2019-05-03T08:02:18.203Z,966.19
2019-05-03T08:03:18.267Z,966.16
2019-05-03T08:04:18.306Z,966.18
2019-05-03T08:05:18.343Z,966.19
2019-05-03T08:06:18.382Z,966.19
2019-05-03T08:07:22.427Z,966.16
2019-05-03T08:08:18.512Z,966.21
2019-05-03T08:09:18.597Z,966.19
2019-05-03T08:10:18.589Z,966.19
2019-05-03T08:11:18.622Z,966.21
2019-05-03T08:12:18.670Z,966.20
2019-05-03T08:13:18.710Z,966.18
2019-05-03T08:14:18.783Z,966.21
2019-05-03T08:15:18.809Z,966.22
2019-05-03T08:16:18.852Z,966.23
2019-05-03T08:17:18.899Z,966.20
2019-05-03T08:18:18.988Z,966.16
2019-05-03T08:19:19.014Z,966.21
2019-05-03T08:20:19.037Z,966.20
2019-05-03T08:21:19.085Z,966.19
2019-05-03T08:22:19.133Z,966.23
2019-05-03T08:23:27.456Z,966.27
2019-05-03T08:24:19.262Z,966.27
2019-05-03T08:25:19.281Z,966.26
2019-05-03T08:26:19.331Z,966.27
2019-05-03T08:27:19.376Z,966.31
2019-05-03T08:28:19.418Z,966.29
2019-05-03T08:29:19.700Z,966.29
2019-05-03T08:30:19.511Z,966.28
2019-05-03T08:31:19.561Z,966.29
2019-05-03T08:32:19.610Z,966.31
2019-05-03T08:33:19.655Z,966.31
2019-05-03T08:34:19.730Z,966.37
2019-05-03T08:35:19.763Z,966.33
2019-05-03T08:36:19.794Z,966.32
2019-05-03T08:37:19.855Z,966.36
2019-05-03T08:38:19.893Z,966.36
2019-05-03T08:39:19.959Z,966.37
2019-05-03T08:40:20.020Z,966.38
2019-05-03T08:41:20.035Z,966.36
2019-05-03T08:42:20.090Z,966.35
2019-05-03T08:43:20.145Z,966.40
2019-05-03T08:44:20.191Z,966.37
2019-05-03T08:45:20.249Z,966.38
2019-05-03T08:46:20.285Z,966.38
2019-05-03T08:47:20.320Z,966.36
2019-05-03T08:48:20.395Z,966.35
2019-05-03T08:49:20.416Z,966.37
2019-05-03T08:50:21.542Z,966.37
2019-05-03T08:51:20.520Z,966.42
2019-05-03T08:52:20.559Z,966.37
2019-05-03T08:53:20.612Z,966.41
2019-05-03T08:54:20.672Z,966.38
2019-05-03T08:55:20.733Z,966.37
2019-05-03T08:56:20.763Z,966.37
2019-05-03T08:57:20.862Z,966.37
2019-05-03T08:58:20.852Z,966.40
2019-05-03T08:59:29.918Z,966.39
2019-05-03T09:00:20.962Z,966.32
2019-05-03T09:01:21.002Z,966.41
2019-05-03T09:02:21.038Z,966.37
2019-05-03T09:03:21.083Z,966.39
2019-05-03T09:04:33.084Z,966.39
2019-05-03T09:05:21.197Z,966.40
2019-05-03T09:06:21.315Z,966.40
2019-05-03T09:07:21.292Z,966.38
2019-05-03T09:08:21.323Z,966.39
2019-05-03T09:09:21.370Z,966.42
2019-05-03T09:10:21.463Z,966.37
2019-05-03T09:11:31.829Z,966.42
2019-05-03T09:12:21.524Z,966.46
2019-05-03T09:13:21.637Z,966.44
2019-05-03T09:14:21.617Z,966.44
2019-05-03T09:15:21.841Z,966.38
2019-05-03T09:16:21.786Z,966.40
2019-05-03T09:17:21.763Z,966.38
2019-05-03T09:18:21.808Z,966.42
2019-05-03T09:19:21.918Z,966.46
2019-05-03T09:20:21.983Z,966.46
2019-05-03T09:21:21.964Z,966.49
2019-05-03T09:22:21.995Z,966.42
2019-05-03T09:23:23.939Z,966.44
2019-05-03T09:24:22.125Z,966.40
2019-05-03T09:25:22.138Z,966.48
2019-05-03T09:26:22.216Z,966.49
2019-05-03T09:27:22.245Z,966.44
2019-05-03T09:28:22.317Z,966.52
2019-05-03T09:29:22.338Z,966.48
2019-05-03T09:30:22.387Z,966.49
2019-05-03T09:31:24.516Z,966.53
2019-05-03T09:32:22.473Z,966.50
2019-05-03T09:33:24.709Z,966.53
2019-05-03T09:34:22.565Z,966.50
2019-05-03T09:35:32.156Z,966.46
2019-05-03T09:36:22.695Z,966.47
2019-05-03T09:37:24.857Z,966.45
2019-05-03T09:38:22.765Z,966.46
2019-05-03T09:39:24.532Z,966.46
2019-05-03T09:40:24.574Z,966.48
2019-05-03T09:41:25.328Z,966.46
2019-05-03T09:42:24.740Z,966.47
2019-05-03T09:43:24.922Z,966.49
2019-05-03T09:44:24.447Z,966.49
2019-05-03T09:45:24.597Z,966.49
2019-05-03T09:46:25.710Z,966.51
2019-05-03T09:47:25.069Z,966.48
2019-05-03T09:48:25.274Z,966.51
2019-05-03T09:49:25.183Z,966.59
2019-05-03T09:50:24.725Z,966.56
2019-05-03T09:51:25.400Z,966.53
2019-05-03T09:52:24.974Z,966.57
2019-05-03T09:53:25.531Z,966.54
2019-05-03T09:54:25.359Z,966.55
2019-05-03T09:55:25.294Z,966.53
2019-05-03T09:56:25.843Z,966.56
2019-05-03T09:57:24.793Z,966.57
2019-05-03T09:58:23.721Z,966.55
2019-05-03T09:59:25.405Z,966.57
2019-05-03T10:00:24.533Z,966.56
2019-05-03T10:01:25.579Z,966.60
2019-05-03T10:02:24.651Z,966.57
2019-05-03T10:03:23.972Z,966.57
2019-05-03T10:04:25.583Z,966.57
2019-05-03T10:05:25.481Z,966.55
2019-05-03T10:06:25.095Z,966.54
2019-05-03T10:07:25.770Z,966.58
2019-05-03T10:08:25.436Z,966.57
2019-05-03T10:09:26.171Z,966.58
2019-05-03T10:10:24.818Z,966.59
2019-05-03T10:11:25.480Z,966.58
2019-05-03T10:12:25.454Z,966.60
2019-05-03T10:13:26.965Z,966.61
2019-05-03T10:14:24.482Z,966.57
2019-05-03T10:15:26.046Z,966.57
2019-05-03T10:16:24.899Z,966.56
2019-05-03T10:17:25.193Z,966.58
2019-05-03T10:18:25.469Z,966.62
2019-05-03T10:19:36.618Z,966.60
2019-05-03T10:20:25.205Z,966.62
2019-05-03T10:21:25.775Z,966.64
2019-05-03T10:22:25.247Z,966.62
2019-05-03T10:23:24.918Z,966.61
2019-05-03T10:24:24.964Z,966.61
2019-05-03T10:25:25.016Z,966.62
2019-05-03T10:26:25.058Z,966.63
2019-05-03T10:27:25.195Z,966.59
2019-05-03T10:28:25.208Z,966.61
2019-05-03T10:29:25.222Z,966.61
2019-05-03T10:30:25.253Z,966.56
2019-05-03T10:31:25.311Z,966.59
2019-05-03T10:32:25.476Z,966.58
2019-05-03T10:33:26.077Z,966.59
2019-05-03T10:34:25.441Z,966.56
2019-05-03T10:35:25.492Z,966.59
2019-05-03T10:36:25.544Z,966.63
2019-05-03T10:37:25.616Z,966.63
2019-05-03T10:38:25.680Z,966.65
2019-05-03T10:39:26.339Z,966.65
2019-05-03T10:40:25.742Z,966.64
2019-05-03T10:41:25.945Z,966.64
2019-05-03T10:42:25.831Z,966.63
2019-05-03T10:43:25.898Z,966.68
2019-05-03T10:44:25.926Z,966.64
2019-05-03T10:45:28.108Z,966.66
2019-05-03T10:46:26.037Z,966.64
2019-05-03T10:47:26.164Z,966.61
2019-05-03T10:48:26.183Z,966.62
2019-05-03T10:49:26.174Z,966.61
2019-05-03T10:50:26.217Z,966.63
2019-05-03T10:51:26.266Z,966.63
2019-05-03T10:52:26.318Z,966.63
2019-05-03T10:53:26.783Z,966.60
2019-05-03T10:54:26.437Z,966.58
2019-05-03T10:55:26.463Z,966.60
2019-05-03T10:56:26.918Z,966.63
2019-05-03T10:57:26.551Z,966.64
2019-05-03T10:58:26.619Z,966.63
2019-05-03T10:59:26.675Z,966.67
2019-05-03T11:00:49.542Z,966.63
2019-05-03T11:01:26.743Z,966.65
2019-05-03T11:02:26.792Z,966.63
2019-05-03T11:03:26.851Z,966.63
2019-05-03T11:04:26.928Z,966.66
2019-05-03T11:05:26.984Z,966.57
2019-05-03T11:06:26.984Z,966.60
2019-05-03T11:07:27.030Z,966.58
2019-05-03T11:08:27.087Z,966.56
2019-05-03T11:09:27.163Z,966.57
2019-05-03T11:10:27.175Z,966.54
2019-05-03T11:11:27.228Z,966.57
2019-05-03T11:12:27.291Z,966.54
2019-05-03T11:13:27.322Z,966.53
2019-05-03T11:14:28.229Z,966.56
2019-05-03T11:15:27.422Z,966.55
2019-05-03T11:16:28.196Z,966.53
2019-05-03T11:17:27.512Z,966.56
2019-05-03T11:18:28.231Z,966.51
2019-05-03T11:19:27.627Z,966.50
2019-05-03T11:20:29.248Z,966.48
2019-05-03T11:21:30.930Z,966.46
2019-05-03T11:22:27.755Z,966.46
2019-05-03T11:23:27.800Z,966.50
2019-05-03T11:24:27.868Z,966.45
2019-05-03T11:25:27.919Z,966.49
2019-05-03T11:26:27.942Z,966.47
2019-05-03T11:27:27.991Z,966.50
2019-05-03T11:28:28.066Z,966.49
2019-05-03T11:29:28.098Z,966.51
2019-05-03T11:30:28.135Z,966.47
2019-05-03T11:31:28.183Z,966.40
2019-05-03T11:32:28.246Z,966.41
2019-05-03T11:33:28.268Z,966.42
2019-05-03T11:34:28.351Z,966.44
2019-05-03T11:35:28.388Z,966.38
2019-05-03T11:36:28.416Z,966.35
2019-05-03T11:37:28.461Z,966.35
2019-05-03T11:38:28.517Z,966.38
2019-05-03T11:39:28.553Z,966.37
2019-05-03T11:40:28.629Z,966.34
2019-05-03T11:41:32.531Z,966.38
2019-05-03T11:42:28.705Z,966.36
2019-05-03T11:43:28.749Z,966.41
2019-05-03T11:44:28.806Z,966.34
2019-05-03T11:45:28.867Z,966.37
2019-05-03T11:46:28.892Z,966.39
2019-05-03T11:47:28.957Z,966.39
2019-05-03T11:48:29.010Z,966.36
2019-05-03T11:49:29.043Z,966.36
2019-05-03T11:50:29.114Z,966.36
2019-05-03T11:51:29.144Z,966.36
2019-05-03T11:52:29.199Z,966.32
2019-05-03T11:53:29.289Z,966.33
2019-05-03T11:54:29.284Z,966.35
2019-05-03T11:55:29.362Z,966.32
2019-05-03T11:56:29.380Z,966.29
2019-05-03T11:57:29.428Z,966.29
2019-05-03T11:58:29.476Z,966.31
2019-05-03T11:59:29.533Z,966.31
2019-05-03T12:00:29.713Z,966.27
2019-05-03T12:01:29.623Z,966.26
2019-05-03T12:02:29.672Z,966.27
2019-05-03T12:03:29.984Z,966.25
2019-05-03T12:04:29.777Z,966.25
2019-05-03T12:05:29.852Z,966.23
2019-05-03T12:06:29.871Z,966.20
2019-05-03T12:07:38.939Z,966.22
2019-05-03T12:08:29.975Z,966.21
2019-05-03T12:09:30.055Z,966.19
2019-05-03T12:10:46.001Z,966.21
2019-05-03T12:11:30.137Z,966.18
2019-05-03T12:12:30.168Z,966.18
2019-05-03T12:13:30.222Z,966.15
2019-05-03T12:14:30.283Z,966.15
2019-05-03T12:15:30.348Z,966.14
2019-05-03T12:17:07.736Z,966.16
2019-05-03T12:17:30.837Z,966.15
2019-05-03T12:18:44.576Z,966.11
2019-05-03T12:19:31.813Z,966.11
2019-05-03T12:20:32.037Z,966.05
2019-05-03T12:21:31.719Z,966.10
2019-05-03T12:22:31.151Z,966.10
2019-05-03T12:23:31.925Z,966.13
2019-05-03T12:24:31.318Z,966.09
2019-05-03T12:25:31.171Z,966.07
2019-05-03T12:26:41.760Z,966.12
2019-05-03T12:27:30.923Z,966.10
2019-05-03T12:28:30.978Z,966.09
2019-05-03T12:29:31.020Z,966.09